TOM2MC HEGN-EGNT
Flight info
| Callsign | TOM2MC |
|---|---|
| Flight time | N/A |
| Altitude | 34000 |
| Route | SOLOX1B SOLOX V603 GIDID DCT KAPIT L677 CVO A16 RASDA DCT ANIDE DCT VAXOS DCT BANRO UN128 RIKSO DCT LMO DCT EVIVI/N0458F360 DCT OKANA DCT OKLOP DCT KOTUS DCT BABIT DCT SOGMO DCT SASAL DCT BARUG DCT DEXIT DCT MAPOX L604 BIGGE DCT TENLI DCT MIMVA L602 NALAX L46 RIMTO |
| Aircraft | B738/M-SDE2E3FGHIRWXY/LB1 |
Departure
| Time | 2026-05-05 18:40 |
|---|---|
| Airport | Hurghada International Airport (HEGN) |
Arrival
| Time | N/A |
|---|---|
| Airport | Newcastle International Airport (EGNT) |
| Time | Latitude | Longitude | Altitude | Speed | Heading |
|---|---|---|---|---|---|
| 2026-05-05 18:20 | 27.17708 | 33.80667 | 54 ft | 0 kts | 75° |
| 2026-05-05 18:31 | 27.17706 | 33.80658 | 53 ft | 4 kts | 75° |
| 2026-05-05 18:31 | 27.17699 | 33.80629 | 53 ft | 4 kts | 75° |
| 2026-05-05 18:31 | 27.17693 | 33.80606 | 57 ft | 4 kts | 75° |
| 2026-05-05 18:32 | 27.17687 | 33.80579 | 51 ft | 4 kts | 83° |
| 2026-05-05 18:32 | 27.17693 | 33.80567 | 52 ft | 4 kts | 164° |
| 2026-05-05 18:32 | 27.17717 | 33.80561 | 55 ft | 4 kts | 167° |
| 2026-05-05 18:32 | 27.17723 | 33.80560 | 58 ft | 0 kts | 165° |
| 2026-05-05 18:35 | 27.17683 | 33.80571 | 51 ft | 10 kts | 165° |
| 2026-05-05 18:35 | 27.17603 | 33.80595 | 54 ft | 12 kts | 166° |
| 2026-05-05 18:35 | 27.17522 | 33.80618 | 56 ft | 12 kts | 166° |
| 2026-05-05 18:36 | 27.17442 | 33.80640 | 54 ft | 12 kts | 165° |
| 2026-05-05 18:36 | 27.17358 | 33.80665 | 54 ft | 14 kts | 165° |
| 2026-05-05 18:36 | 27.17268 | 33.80692 | 55 ft | 13 kts | 165° |
| 2026-05-05 18:36 | 27.17181 | 33.80718 | 60 ft | 13 kts | 165° |
| 2026-05-05 18:37 | 27.17095 | 33.80735 | 58 ft | 12 kts | 188° |
| 2026-05-05 18:37 | 27.17052 | 33.80660 | 54 ft | 12 kts | 255° |
| 2026-05-05 18:37 | 27.17032 | 33.80569 | 60 ft | 13 kts | 256° |
| 2026-05-05 18:37 | 27.16956 | 33.80535 | 58 ft | 16 kts | 165° |
| 2026-05-05 18:38 | 27.16825 | 33.80574 | 58 ft | 23 kts | 165° |
| 2026-05-05 18:38 | 27.16665 | 33.80621 | 58 ft | 23 kts | 165° |
| 2026-05-05 18:38 | 27.16512 | 33.80665 | 56 ft | 22 kts | 166° |
| 2026-05-05 18:38 | 27.16363 | 33.80709 | 56 ft | 22 kts | 166° |
| 2026-05-05 18:39 | 27.16220 | 33.80751 | 56 ft | 20 kts | 165° |
| 2026-05-05 18:39 | 27.16146 | 33.80722 | 57 ft | 12 kts | 256° |
| 2026-05-05 18:39 | 27.16139 | 33.80632 | 54 ft | 11 kts | 274° |
| 2026-05-05 18:39 | 27.16199 | 33.80586 | 57 ft | 14 kts | 346° |
| 2026-05-05 18:40 | 27.16483 | 33.80502 | 55 ft | 76 kts | 345° |
| 2026-05-05 18:40 | 27.17210 | 33.80290 | 56 ft | 137 kts | 345° |
| 2026-05-05 18:40 | 27.18289 | 33.79976 | 205 ft | 177 kts | 343° |
| 2026-05-05 18:40 | 27.19515 | 33.79617 | 769 ft | 187 kts | 343° |
| 2026-05-05 18:41 | 27.20747 | 33.79222 | 1552 ft | 177 kts | 341° |
| 2026-05-05 18:41 | 27.21898 | 33.78841 | 2437 ft | 175 kts | 340° |
| 2026-05-05 18:41 | 27.23126 | 33.78372 | 2641 ft | 197 kts | 335° |
| 2026-05-05 18:41 | 27.24417 | 33.77665 | 2950 ft | 213 kts | 333° |
| 2026-05-05 18:42 | 27.24866 | 33.77408 | 3111 ft | 216 kts | 333° |
| 2026-05-05 18:42 | 27.27202 | 33.76061 | 3733 ft | 242 kts | 332° |
| 2026-05-05 18:42 | 27.28731 | 33.75181 | 4370 ft | 250 kts | 332° |
| 2026-05-05 18:42 | 27.29761 | 33.74590 | 4851 ft | 253 kts | 332° |
| 2026-05-05 18:43 | 27.31875 | 33.73381 | 5832 ft | 258 kts | 331° |
| 2026-05-05 18:43 | 27.33511 | 33.72449 | 6390 ft | 269 kts | 331° |
| 2026-05-05 18:43 | 27.35157 | 33.71514 | 7279 ft | 262 kts | 330° |
| 2026-05-05 18:43 | 27.36801 | 33.70581 | 7945 ft | 268 kts | 329° |
| 2026-05-05 18:44 | 27.38482 | 33.69626 | 8567 ft | 274 kts | 330° |
| 2026-05-05 18:44 | 27.40197 | 33.68653 | 9265 ft | 277 kts | 329° |
| 2026-05-05 18:44 | 27.41938 | 33.67666 | 9885 ft | 283 kts | 329° |
| 2026-05-05 18:44 | 27.43712 | 33.66660 | 10377 ft | 293 kts | 329° |
| 2026-05-05 18:45 | 27.45599 | 33.65587 | 10522 ft | 314 kts | 329° |
| 2026-05-05 18:45 | 27.47613 | 33.64441 | 10679 ft | 334 kts | 330° |
| 2026-05-05 18:45 | 27.49748 | 33.63228 | 10819 ft | 353 kts | 330° |
| 2026-05-05 18:45 | 27.51993 | 33.61955 | 10963 ft | 369 kts | 330° |
| 2026-05-05 18:46 | 27.54320 | 33.60637 | 11313 ft | 378 kts | 330° |
| 2026-05-05 18:46 | 27.56682 | 33.59301 | 11817 ft | 381 kts | 330° |
| 2026-05-05 18:46 | 27.58251 | 33.58414 | 12222 ft | 381 kts | 330° |
| 2026-05-05 18:46 | 27.61432 | 33.56614 | 12953 ft | 384 kts | 329° |
| 2026-05-05 18:47 | 27.63836 | 33.55251 | 13432 ft | 388 kts | 329° |
| 2026-05-05 18:47 | 27.66260 | 33.53874 | 13903 ft | 392 kts | 329° |
| 2026-05-05 18:47 | 27.68704 | 33.52486 | 14350 ft | 394 kts | 329° |
| 2026-05-05 18:47 | 27.71126 | 33.51109 | 14800 ft | 396 kts | 329° |
| 2026-05-05 18:48 | 27.73627 | 33.49686 | 15241 ft | 399 kts | 329° |
| 2026-05-05 18:48 | 27.76084 | 33.48288 | 15676 ft | 402 kts | 329° |
| 2026-05-05 18:48 | 27.78587 | 33.46862 | 16120 ft | 404 kts | 329° |
| 2026-05-05 18:48 | 27.81107 | 33.45426 | 16551 ft | 407 kts | 329° |
| 2026-05-05 18:49 | 27.83641 | 33.43981 | 16980 ft | 409 kts | 329° |
| 2026-05-05 18:49 | 27.86193 | 33.42525 | 17418 ft | 412 kts | 328° |
| 2026-05-05 18:49 | 27.88751 | 33.41065 | 17903 ft | 412 kts | 328° |
| 2026-05-05 18:49 | 27.91316 | 33.39601 | 18330 ft | 414 kts | 328° |
| 2026-05-05 18:50 | 27.93896 | 33.38127 | 18662 ft | 417 kts | 328° |
| 2026-05-05 18:50 | 27.96496 | 33.36640 | 19030 ft | 419 kts | 328° |
| 2026-05-05 18:50 | 27.99105 | 33.35148 | 19404 ft | 421 kts | 328° |
| 2026-05-05 18:50 | 28.01718 | 33.33653 | 19780 ft | 422 kts | 328° |
| 2026-05-05 18:51 | 28.04347 | 33.32147 | 20144 ft | 424 kts | 328° |
| 2026-05-05 18:51 | 28.06986 | 33.30635 | 20496 ft | 426 kts | 328° |
| 2026-05-05 18:51 | 28.09640 | 33.29114 | 20848 ft | 428 kts | 328° |
| 2026-05-05 18:51 | 28.12303 | 33.27587 | 21188 ft | 430 kts | 328° |
| 2026-05-05 18:52 | 28.14980 | 33.26051 | 21507 ft | 432 kts | 328° |
| 2026-05-05 18:52 | 28.17667 | 33.24508 | 21898 ft | 433 kts | 328° |
| 2026-05-05 18:52 | 28.20361 | 33.22960 | 22252 ft | 435 kts | 328° |
| 2026-05-05 18:52 | 28.23065 | 33.21405 | 22565 ft | 437 kts | 328° |
| 2026-05-05 18:53 | 28.25783 | 33.19841 | 22870 ft | 439 kts | 328° |
| 2026-05-05 18:53 | 28.28516 | 33.18268 | 23190 ft | 441 kts | 328° |
| 2026-05-05 18:53 | 28.31256 | 33.16690 | 23506 ft | 443 kts | 328° |
| 2026-05-05 18:53 | 28.34009 | 33.15104 | 23793 ft | 445 kts | 328° |
| 2026-05-05 18:54 | 28.36776 | 33.13509 | 24030 ft | 447 kts | 328° |
| 2026-05-05 18:54 | 28.39517 | 33.11928 | 24278 ft | 449 kts | 328° |
| 2026-05-05 18:54 | 28.42300 | 33.10321 | 24533 ft | 450 kts | 328° |
| 2026-05-05 18:54 | 28.45096 | 33.08706 | 24789 ft | 452 kts | 328° |
| 2026-05-05 18:55 | 28.47902 | 33.07085 | 25042 ft | 453 kts | 328° |
| 2026-05-05 18:55 | 28.50720 | 33.05456 | 25285 ft | 455 kts | 328° |
| 2026-05-05 18:55 | 28.53540 | 33.03824 | 25526 ft | 456 kts | 328° |
| 2026-05-05 18:55 | 28.56343 | 33.02131 | 25754 ft | 455 kts | 323° |
| 2026-05-05 18:56 | 28.58873 | 33.00009 | 25968 ft | 450 kts | 313° |
| 2026-05-05 18:56 | 28.61200 | 32.97623 | 26236 ft | 452 kts | 317° |
| 2026-05-05 18:56 | 28.63821 | 32.95612 | 26523 ft | 459 kts | 326° |
| 2026-05-05 18:56 | 28.66717 | 32.94029 | 26794 ft | 463 kts | 330° |
| 2026-05-05 18:57 | 28.67713 | 32.93516 | 26882 ft | 463 kts | 330° |